BTK8522 WAAA-WALS
Flight info
| Callsign | BTK8522 |
|---|---|
| Flight time | 1h 13m |
| Altitude | 38000 |
| Route | GAMAL W37 BPN DCT OKTUT |
| Aircraft | A20N/M-SDE2E3FGHIRWXY/LB1 |
Departure
| Time | 2026-04-22 09:34 |
|---|---|
| Airport | Sultan Hasanuddin International Airport (WAAA) |
Arrival
| Time | 2026-04-22 10:47 |
|---|---|
| Airport | Aji Pangeran Tumenggung Pranoto International Airport (WALS) |
| Time | Latitude | Longitude | Altitude | Speed | Heading |
|---|---|---|---|---|---|
| 2026-04-22 09:34 | -5.03731 | 119.55673 | 3073 ft | 180 kts | 359° |
| 2026-04-22 09:34 | -5.02393 | 119.55660 | 3604 ft | 205 kts | 1° |
| 2026-04-22 09:34 | -5.00887 | 119.55700 | 4228 ft | 230 kts | 3° |
| 2026-04-22 09:35 | -4.97443 | 119.55869 | 5789 ft | 268 kts | 3° |
| 2026-04-22 09:35 | -4.95575 | 119.55795 | 6748 ft | 280 kts | 355° |
| 2026-04-22 09:35 | -4.93645 | 119.55484 | 7897 ft | 285 kts | 350° |
| 2026-04-22 09:35 | -4.91719 | 119.55097 | 9056 ft | 288 kts | 350° |
| 2026-04-22 09:36 | -4.89788 | 119.54706 | 10169 ft | 292 kts | 350° |
| 2026-04-22 09:36 | -4.87757 | 119.54303 | 11099 ft | 304 kts | 350° |
| 2026-04-22 09:36 | -4.85650 | 119.53892 | 11764 ft | 323 kts | 350° |
| 2026-04-22 09:36 | -4.83443 | 119.53153 | 12368 ft | 346 kts | 332° |
| 2026-04-22 09:37 | -4.81568 | 119.51554 | 12921 ft | 369 kts | 309° |
| 2026-04-22 09:37 | -4.80357 | 119.49232 | 13447 ft | 389 kts | 292° |
| 2026-04-22 09:37 | -4.79420 | 119.46639 | 14089 ft | 402 kts | 290° |
| 2026-04-22 09:37 | -4.78489 | 119.43990 | 14912 ft | 408 kts | 290° |
| 2026-04-22 09:38 | -4.77540 | 119.41313 | 15762 ft | 413 kts | 290° |
| 2026-04-22 09:38 | -4.76567 | 119.38602 | 16389 ft | 418 kts | 291° |
| 2026-04-22 09:38 | -4.75560 | 119.35827 | 16744 ft | 420 kts | 291° |
| 2026-04-22 09:38 | -4.74573 | 119.33118 | 16818 ft | 420 kts | 291° |
| 2026-04-22 09:39 | -4.73557 | 119.30338 | 16826 ft | 420 kts | 291° |
| 2026-04-22 09:39 | -4.72555 | 119.27604 | 16829 ft | 420 kts | 291° |
| 2026-04-22 09:39 | -4.71546 | 119.24857 | 16831 ft | 420 kts | 291° |
| 2026-04-22 09:39 | -4.70545 | 119.22133 | 16831 ft | 420 kts | 291° |
| 2026-04-22 09:40 | -4.69535 | 119.19389 | 16832 ft | 419 kts | 291° |
| 2026-04-22 09:40 | -4.68526 | 119.16647 | 16832 ft | 419 kts | 291° |
| 2026-04-22 09:40 | -4.67518 | 119.13908 | 16832 ft | 419 kts | 291° |
| 2026-04-22 09:40 | -4.66502 | 119.11149 | 16832 ft | 419 kts | 291° |
| 2026-04-22 09:41 | -4.65497 | 119.08420 | 16832 ft | 419 kts | 291° |
| 2026-04-22 09:41 | -4.64485 | 119.05673 | 16832 ft | 419 kts | 291° |
| 2026-04-22 09:41 | -4.63483 | 119.02953 | 16832 ft | 419 kts | 291° |
| 2026-04-22 09:41 | -4.62471 | 119.00209 | 16832 ft | 420 kts | 291° |
| 2026-04-22 09:42 | -4.61453 | 118.97450 | 16832 ft | 420 kts | 291° |
| 2026-04-22 09:42 | -4.60446 | 118.94720 | 16832 ft | 420 kts | 291° |
| 2026-04-22 09:42 | -4.59427 | 118.91958 | 16832 ft | 420 kts | 291° |
| 2026-04-22 09:42 | -4.58415 | 118.89215 | 16832 ft | 420 kts | 291° |
| 2026-04-22 09:43 | -4.57408 | 118.86491 | 16832 ft | 420 kts | 291° |
| 2026-04-22 09:43 | -4.56398 | 118.83755 | 16832 ft | 419 kts | 291° |
| 2026-04-22 09:43 | -4.55388 | 118.81016 | 16832 ft | 419 kts | 290° |
| 2026-04-22 09:43 | -4.54352 | 118.78304 | 16827 ft | 419 kts | 295° |
| 2026-04-22 09:44 | -4.52818 | 118.75835 | 16828 ft | 418 kts | 310° |
| 2026-04-22 09:44 | -4.50653 | 118.73869 | 16959 ft | 424 kts | 327° |
| 2026-04-22 09:44 | -4.48079 | 118.72398 | 17750 ft | 426 kts | 333° |
| 2026-04-22 09:44 | -4.45496 | 118.71044 | 18673 ft | 426 kts | 334° |
| 2026-04-22 09:45 | -4.42849 | 118.69667 | 19427 ft | 431 kts | 333° |
| 2026-04-22 09:45 | -4.40197 | 118.68278 | 20121 ft | 435 kts | 333° |
| 2026-04-22 09:45 | -4.37503 | 118.66854 | 20809 ft | 440 kts | 333° |
| 2026-04-22 09:45 | -4.34778 | 118.65406 | 21481 ft | 444 kts | 333° |
| 2026-04-22 09:46 | -4.32075 | 118.63965 | 22118 ft | 448 kts | 333° |
| 2026-04-22 09:46 | -4.29301 | 118.62484 | 22742 ft | 452 kts | 333° |
| 2026-04-22 09:46 | -4.26534 | 118.61006 | 23339 ft | 456 kts | 333° |
| 2026-04-22 09:46 | -4.23723 | 118.59504 | 23917 ft | 460 kts | 333° |
| 2026-04-22 09:47 | -4.20912 | 118.58003 | 24462 ft | 464 kts | 333° |
| 2026-04-22 09:47 | -4.18050 | 118.56474 | 24986 ft | 467 kts | 333° |
| 2026-04-22 09:47 | -4.15202 | 118.54954 | 25474 ft | 470 kts | 333° |
| 2026-04-22 09:47 | -4.12292 | 118.53400 | 25934 ft | 474 kts | 333° |
| 2026-04-22 09:48 | -4.09378 | 118.51846 | 26368 ft | 476 kts | 333° |
| 2026-04-22 09:48 | -4.06452 | 118.50284 | 26920 ft | 476 kts | 333° |
| 2026-04-22 09:48 | -4.03556 | 118.48738 | 27537 ft | 474 kts | 333° |
| 2026-04-22 09:48 | -4.00659 | 118.47192 | 28140 ft | 472 kts | 333° |
| 2026-04-22 09:49 | -3.97778 | 118.45656 | 28719 ft | 470 kts | 333° |
| 2026-04-22 09:49 | -3.94920 | 118.44132 | 29287 ft | 469 kts | 333° |
| 2026-04-22 09:49 | -3.92058 | 118.42606 | 29847 ft | 468 kts | 333° |
| 2026-04-22 09:49 | -3.89174 | 118.41068 | 30408 ft | 467 kts | 333° |
| 2026-04-22 09:50 | -3.86335 | 118.39560 | 30958 ft | 466 kts | 333° |
| 2026-04-22 09:50 | -3.83475 | 118.38041 | 31504 ft | 465 kts | 333° |
| 2026-04-22 09:50 | -3.80624 | 118.36523 | 32032 ft | 463 kts | 333° |
| 2026-04-22 09:50 | -3.77772 | 118.35004 | 32542 ft | 462 kts | 333° |
| 2026-04-22 09:51 | -3.74971 | 118.33499 | 33022 ft | 461 kts | 333° |
| 2026-04-22 09:51 | -3.72151 | 118.31976 | 33492 ft | 460 kts | 333° |
| 2026-04-22 09:51 | -3.69337 | 118.30457 | 33947 ft | 459 kts | 333° |
| 2026-04-22 09:51 | -3.66542 | 118.28956 | 34384 ft | 458 kts | 333° |
| 2026-04-22 09:52 | -3.63729 | 118.27449 | 34811 ft | 457 kts | 333° |
| 2026-04-22 09:52 | -3.60929 | 118.25951 | 35226 ft | 456 kts | 333° |
| 2026-04-22 09:52 | -3.58154 | 118.24468 | 35622 ft | 455 kts | 333° |
| 2026-04-22 09:52 | -3.55344 | 118.22968 | 36012 ft | 454 kts | 333° |
| 2026-04-22 09:53 | -3.52564 | 118.21484 | 36357 ft | 454 kts | 333° |
| 2026-04-22 09:53 | -3.49778 | 118.19997 | 36632 ft | 455 kts | 333° |
| 2026-04-22 09:53 | -3.46977 | 118.18503 | 36867 ft | 457 kts | 333° |
| 2026-04-22 09:53 | -3.44186 | 118.17013 | 37092 ft | 459 kts | 333° |
| 2026-04-22 09:54 | -3.41390 | 118.15520 | 37310 ft | 460 kts | 333° |
| 2026-04-22 09:54 | -3.38537 | 118.13997 | 37526 ft | 461 kts | 333° |
| 2026-04-22 09:54 | -3.35700 | 118.12483 | 37733 ft | 463 kts | 333° |
| 2026-04-22 09:54 | -3.32895 | 118.10986 | 37847 ft | 464 kts | 333° |
| 2026-04-22 09:55 | -3.27175 | 118.07934 | 37852 ft | 465 kts | 333° |
| 2026-04-22 09:55 | -3.21510 | 118.04911 | 37842 ft | 465 kts | 334° |
| 2026-04-22 09:56 | -3.15579 | 118.02430 | 37827 ft | 463 kts | 345° |
| 2026-04-22 09:56 | -3.09310 | 118.01222 | 37817 ft | 460 kts | 357° |
| 2026-04-22 09:57 | -3.02954 | 118.01331 | 37811 ft | 458 kts | 8° |
| 2026-04-22 09:57 | -2.96698 | 118.02274 | 37808 ft | 458 kts | 11° |
| 2026-04-22 09:58 | -2.90316 | 118.02509 | 37807 ft | 464 kts | 357° |
| 2026-04-22 09:58 | -2.83970 | 118.01160 | 37807 ft | 470 kts | 342° |
| 2026-04-22 09:59 | -2.78103 | 117.98289 | 37809 ft | 474 kts | 329° |
| 2026-04-22 09:59 | -2.72643 | 117.94594 | 37809 ft | 474 kts | 327° |
| 2026-04-22 10:00 | -2.67249 | 117.90874 | 37808 ft | 474 kts | 327° |
| 2026-04-22 10:00 | -2.61819 | 117.87161 | 37808 ft | 474 kts | 327° |
| 2026-04-22 10:01 | -2.56381 | 117.83458 | 37808 ft | 474 kts | 327° |
| 2026-04-22 10:01 | -2.50949 | 117.79765 | 37808 ft | 474 kts | 327° |
| 2026-04-22 10:02 | -2.45471 | 117.76043 | 37808 ft | 474 kts | 327° |
| 2026-04-22 10:02 | -2.40029 | 117.72347 | 37808 ft | 474 kts | 327° |
| 2026-04-22 10:03 | -2.34601 | 117.68660 | 37808 ft | 474 kts | 327° |
| 2026-04-22 10:03 | -2.29170 | 117.64972 | 37808 ft | 474 kts | 327° |
| 2026-04-22 10:04 | -2.23703 | 117.61259 | 37808 ft | 474 kts | 327° |
| 2026-04-22 10:04 | -2.18279 | 117.57576 | 37808 ft | 474 kts | 327° |
| 2026-04-22 10:05 | -2.12834 | 117.53879 | 37808 ft | 474 kts | 327° |
| 2026-04-22 10:05 | -2.07379 | 117.50176 | 37808 ft | 474 kts | 327° |
| 2026-04-22 10:06 | -2.01928 | 117.46476 | 37808 ft | 474 kts | 327° |
| 2026-04-22 10:06 | -1.96469 | 117.42770 | 37502 ft | 473 kts | 327° |
| 2026-04-22 10:07 | -1.93761 | 117.40932 | 37252 ft | 471 kts | 327° |
| 2026-04-22 10:07 | -1.91067 | 117.39104 | 37001 ft | 468 kts | 327° |
| 2026-04-22 10:07 | -1.88345 | 117.37259 | 36747 ft | 465 kts | 327° |
| 2026-04-22 10:07 | -1.85615 | 117.35417 | 36414 ft | 464 kts | 327° |
| 2026-04-22 10:08 | -1.82964 | 117.33622 | 35916 ft | 464 kts | 327° |
| 2026-04-22 10:08 | -1.80285 | 117.31794 | 35213 ft | 465 kts | 327° |
| 2026-04-22 10:08 | -1.77644 | 117.29992 | 34439 ft | 466 kts | 327° |
| 2026-04-22 10:08 | -1.74969 | 117.28168 | 33612 ft | 467 kts | 327° |
| 2026-04-22 10:09 | -1.72285 | 117.26339 | 32767 ft | 469 kts | 327° |
| 2026-04-22 10:09 | -1.69611 | 117.24519 | 31909 ft | 470 kts | 327° |
| 2026-04-22 10:09 | -1.66931 | 117.22697 | 31025 ft | 470 kts | 327° |
| 2026-04-22 10:09 | -1.64227 | 117.20859 | 30104 ft | 471 kts | 327° |
| 2026-04-22 10:10 | -1.61545 | 117.19038 | 29163 ft | 472 kts | 327° |
| 2026-04-22 10:10 | -1.58830 | 117.17196 | 28173 ft | 473 kts | 327° |
| 2026-04-22 10:10 | -1.56124 | 117.15360 | 27150 ft | 474 kts | 327° |
| 2026-04-22 10:10 | -1.53421 | 117.13528 | 26081 ft | 475 kts | 327° |
| 2026-04-22 10:11 | -1.50682 | 117.11673 | 25248 ft | 470 kts | 327° |
| 2026-04-22 10:11 | -1.47984 | 117.09844 | 24605 ft | 467 kts | 327° |
| 2026-04-22 10:11 | -1.45345 | 117.08056 | 23936 ft | 461 kts | 327° |
| 2026-04-22 10:11 | -1.42710 | 117.06271 | 23241 ft | 456 kts | 327° |
| 2026-04-22 10:12 | -1.40119 | 117.04517 | 22539 ft | 450 kts | 327° |
| 2026-04-22 10:12 | -1.37553 | 117.02782 | 21830 ft | 446 kts | 327° |
| 2026-04-22 10:12 | -1.35021 | 117.01070 | 21119 ft | 441 kts | 327° |
| 2026-04-22 10:12 | -1.32497 | 116.99363 | 20401 ft | 437 kts | 327° |
| 2026-04-22 10:13 | -1.29979 | 116.97658 | 19672 ft | 433 kts | 327° |
| 2026-04-22 10:13 | -1.27519 | 116.96009 | 18950 ft | 429 kts | 329° |
| 2026-04-22 10:13 | -1.24863 | 116.94732 | 18219 ft | 424 kts | 341° |
| 2026-04-22 10:13 | -1.22011 | 116.94070 | 17495 ft | 418 kts | 354° |
| 2026-04-22 10:14 | -1.19143 | 116.93960 | 16823 ft | 412 kts | 1° |
| 2026-04-22 10:14 | -1.16309 | 116.93998 | 16174 ft | 407 kts | 2° |
| 2026-04-22 10:14 | -1.13479 | 116.94057 | 15504 ft | 403 kts | 2° |
| 2026-04-22 10:14 | -1.10721 | 116.94109 | 14840 ft | 399 kts | 2° |
| 2026-04-22 10:15 | -1.07960 | 116.94154 | 14136 ft | 397 kts | 1° |
| 2026-04-22 10:15 | -1.05236 | 116.94192 | 13414 ft | 395 kts | 1° |
| 2026-04-22 10:15 | -1.02512 | 116.94224 | 12685 ft | 393 kts | 0° |
| 2026-04-22 10:15 | -0.99803 | 116.94254 | 11971 ft | 391 kts | 0° |
| 2026-04-22 10:16 | -0.97091 | 116.94280 | 11395 ft | 383 kts | 360° |
| 2026-04-22 10:16 | -0.94474 | 116.94305 | 10940 ft | 371 kts | 359° |
| 2026-04-22 10:16 | -0.91958 | 116.94326 | 10689 ft | 354 kts | 359° |
| 2026-04-22 10:16 | -0.89570 | 116.94347 | 10457 ft | 339 kts | 359° |
| 2026-04-22 10:17 | -0.87252 | 116.94370 | 10248 ft | 325 kts | 359° |
| 2026-04-22 10:17 | -0.85066 | 116.94392 | 10123 ft | 309 kts | 359° |
| 2026-04-22 10:17 | -0.82953 | 116.94415 | 10021 ft | 294 kts | 359° |
| 2026-04-22 10:17 | -0.80946 | 116.94437 | 9761 ft | 287 kts | 359° |
| 2026-04-22 10:18 | -0.78981 | 116.94457 | 9408 ft | 284 kts | 359° |
| 2026-04-22 10:18 | -0.77011 | 116.94476 | 9064 ft | 281 kts | 359° |
| 2026-04-22 10:18 | -0.75069 | 116.94495 | 8727 ft | 278 kts | 359° |
| 2026-04-22 10:18 | -0.73134 | 116.94512 | 8391 ft | 275 kts | 359° |
| 2026-04-22 10:19 | -0.71255 | 116.94530 | 8081 ft | 271 kts | 359° |
| 2026-04-22 10:19 | -0.69386 | 116.94547 | 7764 ft | 268 kts | 359° |
| 2026-04-22 10:19 | -0.67520 | 116.94563 | 7442 ft | 266 kts | 359° |
| 2026-04-22 10:19 | -0.65685 | 116.94578 | 7120 ft | 264 kts | 359° |
| 2026-04-22 10:20 | -0.63873 | 116.94593 | 6800 ft | 261 kts | 360° |
| 2026-04-22 10:20 | -0.62067 | 116.94609 | 6481 ft | 259 kts | 360° |
| 2026-04-22 10:20 | -0.60260 | 116.94625 | 6159 ft | 257 kts | 360° |
| 2026-04-22 10:20 | -0.58476 | 116.94641 | 5841 ft | 256 kts | 0° |
| 2026-04-22 10:21 | -0.56715 | 116.94657 | 5526 ft | 254 kts | 0° |
| 2026-04-22 10:21 | -0.54960 | 116.94689 | 5205 ft | 253 kts | 5° |
| 2026-04-22 10:21 | -0.53298 | 116.95213 | 4866 ft | 253 kts | 31° |
| 2026-04-22 10:21 | -0.52072 | 116.96430 | 4547 ft | 253 kts | 58° |
| 2026-04-22 10:22 | -0.51515 | 116.98091 | 4224 ft | 254 kts | 83° |
| 2026-04-22 10:22 | -0.51456 | 116.99866 | 3918 ft | 253 kts | 89° |
| 2026-04-22 10:22 | -0.51470 | 117.01617 | 3610 ft | 252 kts | 89° |
| 2026-04-22 10:22 | -0.51481 | 117.03343 | 3423 ft | 244 kts | 89° |
| 2026-04-22 10:23 | -0.51482 | 117.04981 | 3368 ft | 230 kts | 89° |
| 2026-04-22 10:23 | -0.51476 | 117.06540 | 3316 ft | 216 kts | 88° |
| 2026-04-22 10:23 | -0.51466 | 117.07992 | 3271 ft | 203 kts | 88° |
| 2026-04-22 10:23 | -0.51454 | 117.09374 | 3237 ft | 198 kts | 88° |
| 2026-04-22 10:24 | -0.51411 | 117.10741 | 3179 ft | 189 kts | 76° |
| 2026-04-22 10:24 | -0.50869 | 117.11868 | 3118 ft | 178 kts | 50° |
| 2026-04-22 10:24 | -0.50037 | 117.12770 | 3037 ft | 177 kts | 43° |
| 2026-04-22 10:24 | -0.49153 | 117.13594 | 3011 ft | 168 kts | 42° |
| 2026-04-22 10:25 | -0.48304 | 117.14382 | 2748 ft | 166 kts | 43° |
| 2026-04-22 10:25 | -0.47490 | 117.15159 | 2498 ft | 155 kts | 44° |
| 2026-04-22 10:25 | -0.46747 | 117.15881 | 2299 ft | 145 kts | 44° |
| 2026-04-22 10:25 | -0.46051 | 117.16562 | 2117 ft | 134 kts | 44° |
| 2026-04-22 10:26 | -0.45400 | 117.17197 | 1985 ft | 130 kts | 44° |
| 2026-04-22 10:26 | -0.44748 | 117.17834 | 1817 ft | 130 kts | 44° |
| 2026-04-22 10:26 | -0.44096 | 117.18469 | 1644 ft | 130 kts | 44° |
| 2026-04-22 10:26 | -0.43454 | 117.19095 | 1481 ft | 128 kts | 44° |
| 2026-04-22 10:27 | -0.42816 | 117.19715 | 1313 ft | 128 kts | 44° |
| 2026-04-22 10:27 | -0.42178 | 117.20335 | 1148 ft | 127 kts | 44° |
| 2026-04-22 10:27 | -0.41547 | 117.20950 | 985 ft | 127 kts | 44° |
| 2026-04-22 10:27 | -0.40913 | 117.21566 | 822 ft | 127 kts | 44° |
| 2026-04-22 10:28 | -0.40285 | 117.22176 | 660 ft | 126 kts | 45° |
| 2026-04-22 10:28 | -0.39660 | 117.22783 | 506 ft | 124 kts | 44° |
| 2026-04-22 10:28 | -0.39046 | 117.23383 | 372 ft | 124 kts | 45° |
| 2026-04-22 10:28 | -0.38428 | 117.23974 | 219 ft | 123 kts | 45° |
| 2026-04-22 10:29 | -0.37812 | 117.24564 | 84 ft | 115 kts | 47° |
| 2026-04-22 10:29 | -0.37298 | 117.25082 | 83 ft | 116 kts | 44° |
| 2026-04-22 10:29 | -0.36623 | 117.25710 | 706 ft | 141 kts | 46° |
| 2026-04-22 10:29 | -0.35923 | 117.26391 | 1678 ft | 152 kts | 44° |
| 2026-04-22 10:30 | -0.35196 | 117.27113 | 2639 ft | 150 kts | 44° |
| 2026-04-22 10:30 | -0.34446 | 117.27863 | 3331 ft | 164 kts | 44° |
| 2026-04-22 10:30 | -0.33551 | 117.28635 | 3989 ft | 182 kts | 27° |
| 2026-04-22 10:30 | -0.32251 | 117.28722 | 4632 ft | 204 kts | 340° |
| 2026-04-22 10:31 | -0.31161 | 117.27753 | 5248 ft | 232 kts | 297° |
| 2026-04-22 10:31 | -0.30692 | 117.26091 | 5792 ft | 265 kts | 281° |
| 2026-04-22 10:31 | -0.30396 | 117.24246 | 5984 ft | 276 kts | 281° |
| 2026-04-22 10:31 | -0.30029 | 117.22350 | 5987 ft | 276 kts | 283° |
| 2026-04-22 10:32 | -0.29568 | 117.20479 | 5992 ft | 276 kts | 287° |
| 2026-04-22 10:32 | -0.29048 | 117.18655 | 5994 ft | 276 kts | 288° |
| 2026-04-22 10:32 | -0.28497 | 117.16801 | 5994 ft | 276 kts | 288° |
| 2026-04-22 10:32 | -0.28075 | 117.14943 | 5980 ft | 278 kts | 272° |
| 2026-04-22 10:33 | -0.28541 | 117.13072 | 5982 ft | 281 kts | 240° |
| 2026-04-22 10:33 | -0.29863 | 117.11639 | 5998 ft | 284 kts | 219° |
| 2026-04-22 10:33 | -0.31417 | 117.10452 | 5997 ft | 284 kts | 217° |
| 2026-04-22 10:33 | -0.32994 | 117.09277 | 5996 ft | 283 kts | 218° |
| 2026-04-22 10:34 | -0.34569 | 117.08087 | 5996 ft | 283 kts | 218° |
| 2026-04-22 10:34 | -0.36129 | 117.06889 | 5995 ft | 283 kts | 218° |
| 2026-04-22 10:34 | -0.37686 | 117.05680 | 5995 ft | 283 kts | 219° |
| 2026-04-22 10:34 | -0.39238 | 117.04468 | 5995 ft | 283 kts | 219° |
| 2026-04-22 10:35 | -0.40773 | 117.03264 | 5995 ft | 283 kts | 219° |
| 2026-04-22 10:35 | -0.42322 | 117.02047 | 5995 ft | 283 kts | 219° |
| 2026-04-22 10:35 | -0.43869 | 117.00830 | 5995 ft | 282 kts | 219° |
| 2026-04-22 10:35 | -0.45412 | 116.99616 | 5995 ft | 282 kts | 219° |
| 2026-04-22 10:36 | -0.46946 | 116.98410 | 5994 ft | 280 kts | 219° |
| 2026-04-22 10:36 | -0.48431 | 116.97243 | 5990 ft | 263 kts | 219° |
| 2026-04-22 10:36 | -0.49824 | 116.96145 | 5986 ft | 246 kts | 219° |
| 2026-04-22 10:36 | -0.51122 | 116.95119 | 5984 ft | 230 kts | 220° |
| 2026-04-22 10:37 | -0.52281 | 116.94092 | 5972 ft | 214 kts | 237° |
| 2026-04-22 10:37 | -0.52646 | 116.91294 | 5994 ft | 211 kts | 271° |
| 2026-04-22 10:37 | -0.52564 | 116.89829 | 5992 ft | 213 kts | 279° |
| 2026-04-22 10:38 | -0.51935 | 116.88506 | 5985 ft | 215 kts | 315° |
| 2026-04-22 10:38 | -0.50639 | 116.87807 | 5989 ft | 215 kts | 353° |
| 2026-04-22 10:38 | -0.49182 | 116.88002 | 5991 ft | 212 kts | 29° |
| 2026-04-22 10:38 | -0.48129 | 116.88985 | 5992 ft | 209 kts | 64° |
| 2026-04-22 10:39 | -0.47827 | 116.90362 | 5993 ft | 206 kts | 98° |
| 2026-04-22 10:39 | -0.48347 | 116.91665 | 5994 ft | 204 kts | 131° |
| 2026-04-22 10:39 | -0.49478 | 116.92486 | 6003 ft | 203 kts | 153° |
| 2026-04-22 10:39 | -0.50728 | 116.93211 | 5988 ft | 213 kts | 137° |
| 2026-04-22 10:40 | -0.51488 | 116.94431 | 5985 ft | 213 kts | 99° |
| 2026-04-22 10:40 | -0.51595 | 116.95954 | 6058 ft | 222 kts | 88° |
| 2026-04-22 10:40 | -0.51580 | 116.97473 | 6098 ft | 213 kts | 87° |
| 2026-04-22 10:40 | -0.51553 | 116.98925 | 5887 ft | 210 kts | 87° |
| 2026-04-22 10:41 | -0.51527 | 117.00385 | 5629 ft | 208 kts | 87° |
| 2026-04-22 10:41 | -0.51507 | 117.01824 | 5375 ft | 207 kts | 87° |
| 2026-04-22 10:41 | -0.51489 | 117.03268 | 5122 ft | 206 kts | 87° |
| 2026-04-22 10:41 | -0.51474 | 117.04682 | 4873 ft | 205 kts | 87° |
| 2026-04-22 10:42 | -0.51458 | 117.06098 | 4623 ft | 203 kts | 87° |
| 2026-04-22 10:42 | -0.51442 | 117.07501 | 4375 ft | 202 kts | 87° |
| 2026-04-22 10:42 | -0.51427 | 117.08913 | 4125 ft | 201 kts | 88° |
| 2026-04-22 10:42 | -0.51412 | 117.10301 | 3878 ft | 200 kts | 86° |
| 2026-04-22 10:43 | -0.51063 | 117.11606 | 3606 ft | 197 kts | 56° |
| 2026-04-22 10:43 | -0.50198 | 117.12643 | 3366 ft | 194 kts | 43° |
| 2026-04-22 10:43 | -0.49205 | 117.13562 | 3102 ft | 194 kts | 41° |
| 2026-04-22 10:43 | -0.48208 | 117.14467 | 2844 ft | 194 kts | 42° |
| 2026-04-22 10:44 | -0.47214 | 117.15405 | 2444 ft | 201 kts | 43° |
| 2026-04-22 10:44 | -0.46212 | 117.16381 | 2247 ft | 195 kts | 44° |
| 2026-04-22 10:44 | -0.45267 | 117.17310 | 1957 ft | 188 kts | 44° |
| 2026-04-22 10:44 | -0.44390 | 117.18174 | 1692 ft | 169 kts | 44° |
| 2026-04-22 10:45 | -0.43590 | 117.18961 | 1501 ft | 153 kts | 44° |
| 2026-04-22 10:45 | -0.42867 | 117.19669 | 1328 ft | 140 kts | 44° |
| 2026-04-22 10:45 | -0.42199 | 117.20319 | 1170 ft | 127 kts | 44° |
| 2026-04-22 10:45 | -0.41564 | 117.20935 | 1014 ft | 127 kts | 44° |
| 2026-04-22 10:46 | -0.40940 | 117.21541 | 857 ft | 126 kts | 44° |
| 2026-04-22 10:46 | -0.40312 | 117.22151 | 695 ft | 126 kts | 44° |
| 2026-04-22 10:46 | -0.39681 | 117.22765 | 535 ft | 125 kts | 44° |
| 2026-04-22 10:46 | -0.39055 | 117.23373 | 396 ft | 125 kts | 44° |
| 2026-04-22 10:47 | -0.38437 | 117.23969 | 237 ft | 125 kts | 44° |
| 2026-04-22 10:47 | -0.37808 | 117.24567 | 88 ft | 116 kts | 47° |
| 2026-04-22 10:47 | -0.37377 | 117.25008 | 82 ft | 49 kts | 37° |
| 2026-04-22 10:47 | -0.37283 | 117.25120 | 82 ft | 13 kts | 98° |
| 2026-04-22 10:48 | -0.37337 | 117.25186 | 82 ft | 8 kts | 133° |
| 2026-04-22 10:48 | -0.37352 | 117.25243 | 82 ft | 9 kts | 82° |
| 2026-04-22 10:48 | -0.37331 | 117.25272 | 82 ft | 5 kts | 42° |
| 2026-04-22 10:48 | -0.37297 | 117.25304 | 82 ft | 8 kts | 46° |
| 2026-04-22 10:49 | -0.37251 | 117.25350 | 82 ft | 10 kts | 41° |
| 2026-04-22 10:49 | -0.37194 | 117.25404 | 82 ft | 12 kts | 45° |
| 2026-04-22 10:49 | -0.37112 | 117.25486 | 82 ft | 23 kts | 44° |
| 2026-04-22 10:49 | -0.37021 | 117.25575 | 82 ft | 7 kts | 45° |
| 2026-04-22 10:50 | -0.37000 | 117.25616 | 82 ft | 7 kts | 119° |
| 2026-04-22 10:50 | -0.37022 | 117.25640 | 82 ft | 0 kts | 136° |
| 2026-04-22 10:50 | -0.37028 | 117.25647 | 82 ft | 2 kts | 134° |
| 2026-04-22 10:50 | -0.37044 | 117.25663 | 82 ft | 2 kts | 135° |
| 2026-04-22 10:51 | -0.37045 | 117.25664 | 82 ft | 0 kts | 135° |
| 2026-04-22 10:51 | -0.37043 | 117.25662 | 82 ft | 1 kts | 135° |
| 2026-04-22 10:51 | -0.37040 | 117.25658 | 82 ft | 0 kts | 134° |